Time;durP1;ratioP1;P1;durP2;ratioP2;P2;SDS_P1;SDS_P2;PMS_P1;PMS_P2;Temp;Humidity;BMP_temperature;BMP_pressure;BME280_temperature;BME280_humidity;BME280_pressure;Samples;Min_cycle;Max_cycle;Signal;HPM_P1;HPM_P2
2023/04/14 00:00:26;;;;;;;;;;;;;;;11.19;66.08;98921.88;4991362;28;19914;-92
2023/04/14 00:02:52;;;;;;;;;;;;;;;11.01;65.86;98918.00;4991102;28;20364;-92
2023/04/14 00:05:17;;;;;;;;;;;;;;;10.96;66.01;98922.56;4991302;28;20020;-92
2023/04/14 00:07:42;;;;;;;;;;;;;;;10.68;66.79;98923.34;4990025;28;19913;-92
2023/04/14 00:10:08;;;;;;;;;;;;;;;10.47;67.58;98927.44;4989534;28;19969;-92
2023/04/14 00:12:33;;;;;;;;;;;;;;;10.59;67.49;98922.75;4990681;28;19924;-92
2023/04/14 00:14:59;;;;;;;;;;;;;;;10.52;66.79;98929.97;4991531;28;19914;-92
2023/04/14 00:17:25;;;;;;;;;;;;;;;10.31;68.05;98926.94;4994669;28;19976;-92
2023/04/14 00:19:54;;;;;;;;;;;;;;;10.53;67.54;98929.03;4995134;28;20012;-92
2023/04/14 00:22:20;;;;;;;;;;;;;;;10.70;67.35;98931.22;4994791;28;20347;-92
2023/04/14 00:24:46;;;;;;;;;;;;;;;10.68;67.30;98927.75;4993333;28;19960;-92
2023/04/14 00:27:14;;;;;;;;;;;;;;;10.75;67.03;98926.66;4994472;28;20380;-92
2023/04/14 00:29:39;;;;;;;;;;;;;;;10.70;66.57;98931.22;4994789;28;19913;-92
2023/04/14 00:32:05;;;;;;;;;;;;;;;10.76;66.40;98933.69;4992920;28;19925;-91
2023/04/14 00:34:31;;;;;;;;;;;;;;;10.72;66.44;98939.94;4994530;28;19914;-92
2023/04/14 00:36:56;;;;;;;;;;;;;;;10.53;66.50;98937.84;4994242;28;20379;-92
2023/04/14 00:39:22;;;;;;;;;;;;;;;10.66;66.55;98942.75;4993200;28;19983;-92
2023/04/14 00:41:47;;;;;;;;;;;;;;;10.80;66.87;98940.63;4976492;28;20320;-91
2023/04/14 00:44:14;;;;;;;;;;;;;;;10.85;66.44;98943.97;4993943;28;19922;-91
2023/04/14 00:46:40;;;;;;;;;;;;;;;10.71;66.53;98954.06;4992675;28;20340;-92
2023/04/14 00:49:06;;;;;;;;;;;;;;;10.82;66.89;98954.63;4976531;28;20013;-90
2023/04/14 00:51:32;;;;;;;;;;;;;;;10.77;66.61;98950.38;4994586;28;19913;-91
2023/04/14 00:53:59;;;;;;;;;;;;;;;10.80;66.27;98943.25;4993548;28;20372;-92
2023/04/14 00:56:28;;;;;;;;;;;;;;;10.72;66.41;98947.84;4994250;28;19918;-91
2023/04/14 00:58:54;;;;;;;;;;;;;;;10.79;65.79;98946.78;5008840;28;20488;-91
2023/04/14 01:01:19;;;;;;;;;;;;;;;10.81;65.92;98952.03;4993997;28;19953;-92
2023/04/14 01:03:45;;;;;;;;;;;;;;;10.82;65.92;98951.13;4994283;28;19960;-92
2023/04/14 01:06:10;;;;;;;;;;;;;;;10.65;66.65;98943.69;4994178;28;19914;-91
2023/04/14 01:08:36;;;;;;;;;;;;;;;10.68;66.62;98939.16;4993308;28;20395;-92
2023/04/14 01:11:20;;;;;;;;;;;;;;;10.81;66.08;98937.03;4994012;28;19914;-92
2023/04/14 01:13:57;;;;;;;;;;;;;;;10.78;66.58;98938.91;4993422;28;19984;-92
2023/04/14 01:16:28;;;;;;;;;;;;;;;10.76;66.63;98941.59;4992514;28;19914;-92
2023/04/14 01:18:54;;;;;;;;;;;;;;;10.81;66.13;98937.03;5008100;28;20257;-91
2023/04/14 01:21:22;;;;;;;;;;;;;;;10.66;66.38;98940.09;4992156;28;19914;-92
2023/04/14 01:24:03;;;;;;;;;;;;;;;10.77;66.36;98942.44;5008424;28;19918;-93
2023/04/14 01:26:30;;;;;;;;;;;;;;;10.84;65.76;98938.75;4975334;28;19964;-93
2023/04/14 01:29:01;;;;;;;;;;;;;;;10.88;65.46;98933.34;5007946;28;19936;-92
2023/04/14 01:31:45;;;;;;;;;;;;;;;10.95;65.16;98931.38;4993591;28;19913;-92
2023/04/14 01:34:44;;;;;;;;;;;;;;;10.74;65.98;98936.38;4993155;28;20000;-92
2023/04/14 01:37:14;;;;;;;;;;;;;;;10.74;66.12;98935.50;4932976;29;19990;-92
2023/04/14 01:39:45;;;;;;;;;;;;;;;10.68;65.96;98938.31;4933070;29;19919;-92
2023/04/14 01:42:14;;;;;;;;;;;;;;;10.59;66.00;98933.28;4933047;29;20030;-91
2023/04/14 01:44:40;;;;;;;;;;;;;;;10.60;66.15;98935.88;4933012;29;20016;-91
2023/04/14 01:47:07;;;;;;;;;;;;;;;10.64;65.35;98937.50;4932985;29;19973;-92
2023/04/14 01:49:35;;;;;;;;;;;;;;;10.66;65.37;98946.28;4917086;29;20384;-93
2023/04/14 01:52:12;;;;;;;;;;;;;;;10.55;65.49;98940.41;4916639;29;19915;-92
2023/04/14 01:54:41;;;;;;;;;;;;;;;10.37;66.26;98937.34;4916780;29;19914;-92
2023/04/14 01:57:08;;;;;;;;;;;;;;;10.27;65.84;98930.59;4932487;29;20305;-92
2023/04/14 01:59:35;;;;;;;;;;;;;;;10.25;66.27;98927.09;4916882;29;19914;-92
2023/04/14 02:02:02;;;;;;;;;;;;;;;10.15;66.77;98929.13;4932315;29;19957;-93
2023/04/14 02:04:28;;;;;;;;;;;;;;;10.17;67.05;98919.38;4932646;29;20385;-92
2023/04/14 02:06:55;;;;;;;;;;;;;;;10.19;66.74;98920.22;4916872;29;20405;-92
2023/04/14 02:09:22;;;;;;;;;;;;;;;10.09;67.32;98918.72;4932350;29;19922;-92
2023/04/14 02:11:48;;;;;;;;;;;;;;;10.06;67.74;98920.59;4939841;28;19919;-91
2023/04/14 02:14:15;;;;;;;;;;;;;;;10.02;67.87;98917.13;4992619;28;19913;-92
2023/04/14 02:16:41;;;;;;;;;;;;;;;9.89;67.93;98906.06;4992543;28;19934;-92
2023/04/14 02:19:07;;;;;;;;;;;;;;;9.97;68.03;98909.34;4992209;28;19914;-92
2023/04/14 02:21:34;;;;;;;;;;;;;;;9.90;68.97;98910.44;4974984;28;19914;-92
2023/04/14 02:23:59;;;;;;;;;;;;;;;9.96;68.48;98909.38;4990621;28;19940;-91
2023/04/14 02:26:29;;;;;;;;;;;;;;;9.87;69.26;98915.78;4992446;28;19914;-91
2023/04/14 02:29:15;;;;;;;;;;;;;;;9.99;68.52;98911.94;4991582;28;19972;-92
2023/04/14 02:31:48;;;;;;;;;;;;;;;9.89;68.70;98915.75;4992164;28;19972;-91
2023/04/14 02:34:14;;;;;;;;;;;;;;;9.89;68.44;98913.09;4992432;28;19918;-92
2023/04/14 02:36:50;;;;;;;;;;;;;;;9.97;68.61;98917.25;4992060;28;19918;-91
2023/04/14 02:39:21;;;;;;;;;;;;;;;10.17;67.36;98915.91;4991220;28;19917;-92
2023/04/14 02:41:47;;;;;;;;;;;;;;;10.22;66.38;98921.91;4992529;28;19914;-92
2023/04/14 02:44:17;;;;;;;;;;;;;;;10.20;66.50;98918.44;5006890;28;19914;-92
2023/04/14 02:46:46;;;;;;;;;;;;;;;10.14;66.86;98923.88;4991855;28;20028;-92
2023/04/14 02:49:13;;;;;;;;;;;;;;;9.84;67.86;98929.88;4991567;28;20004;-92
2023/04/14 02:51:39;;;;;;;;;;;;;;;9.55;68.47;98925.28;4990135;28;19917;-92
2023/04/14 02:54:05;;;;;;;;;;;;;;;9.37;69.70;98928.34;4990481;28;20327;-92
2023/04/14 02:56:31;;;;;;;;;;;;;;;9.48;69.75;98924.59;4991955;28;19972;-90
2023/04/14 02:58:57;;;;;;;;;;;;;;;9.73;69.08;98928.38;4990445;28;20376;-92
2023/04/14 03:01:24;;;;;;;;;;;;;;;9.63;68.93;98946.19;4991472;28;19948;-93
2023/04/14 03:03:52;;;;;;;;;;;;;;;9.67;68.62;98943.44;4991798;28;19913;-92
2023/04/14 03:06:17;;;;;;;;;;;;;;;9.75;68.58;98935.38;4990712;28;19917;-91
2023/04/14 03:08:43;;;;;;;;;;;;;;;9.71;68.15;98940.75;4991893;28;20000;-91
2023/04/14 03:11:09;;;;;;;;;;;;;;;9.54;69.15;98941.97;4991878;28;19913;-92
2023/04/14 03:13:36;;;;;;;;;;;;;;;9.58;69.65;98943.66;4991491;28;19968;-92
2023/04/14 03:16:03;;;;;;;;;;;;;;;9.60;69.68;98943.63;4990093;28;19914;-91
2023/04/14 03:18:29;;;;;;;;;;;;;;;9.75;69.04;98938.00;4991500;28;19929;-91
2023/04/14 03:20:59;;;;;;;;;;;;;;;9.75;68.80;98943.25;4991481;28;19917;-91
2023/04/14 03:23:26;;;;;;;;;;;;;;;9.89;68.50;98957.88;5006435;28;20399;-91
2023/04/14 03:25:52;;;;;;;;;;;;;;;9.88;68.31;98950.88;4991093;28;19918;-91
2023/04/14 03:28:26;;;;;;;;;;;;;;;9.81;68.28;98937.84;5006303;28;19921;-91
2023/04/14 03:30:52;;;;;;;;;;;;;;;10.00;67.47;98932.13;4991227;28;19918;-91
2023/04/14 03:33:22;;;;;;;;;;;;;;;9.97;67.68;98934.84;5006388;28;20019;-92
2023/04/14 03:35:49;;;;;;;;;;;;;;;10.03;67.19;98932.91;4991086;28;20016;-92
2023/04/14 03:38:15;;;;;;;;;;;;;;;10.01;67.14;98937.38;4991783;28;20005;-92
2023/04/14 03:40:43;;;;;;;;;;;;;;;9.86;68.07;98956.19;4991020;28;20371;-92
2023/04/14 03:43:11;;;;;;;;;;;;;;;9.95;67.61;98955.09;4991581;28;20372;-92
2023/04/14 03:45:38;;;;;;;;;;;;;;;9.92;68.05;98947.28;4989906;28;20024;-92
2023/04/14 03:48:05;;;;;;;;;;;;;;;10.06;67.10;98952.22;5005906;28;19917;-92
2023/04/14 03:50:35;;;;;;;;;;;;;;;10.12;67.18;98950.28;4991646;28;19914;-92
2023/04/14 03:53:01;;;;;;;;;;;;;;;10.01;66.76;98949.69;4977091;28;19909;-92
2023/04/14 03:55:30;;;;;;;;;;;;;;;10.06;67.08;98957.47;5010130;28;20345;-92
2023/04/14 03:57:57;;;;;;;;;;;;;;;9.73;68.21;98960.00;4995052;28;19940;-92
2023/04/14 04:00:24;;;;;;;;;;;;;;;9.78;68.20;98953.72;4977285;28;20284;-92
2023/04/14 04:02:50;;;;;;;;;;;;;;;9.69;68.57;98959.22;4977339;28;19913;-91
2023/04/14 04:05:18;;;;;;;;;;;;;;;9.75;68.48;98966.13;5010041;28;20426;-92
2023/04/14 04:07:44;;;;;;;;;;;;;;;9.79;67.85;98965.13;4977374;28;19918;-92
2023/04/14 04:10:11;;;;;;;;;;;;;;;9.83;68.68;98978.19;4977062;28;19914;-91
2023/04/14 04:12:38;;;;;;;;;;;;;;;9.72;68.89;98982.84;5009072;28;19914;-92
2023/04/14 04:15:05;;;;;;;;;;;;;;;9.78;68.80;98984.47;4994455;28;19918;-91
2023/04/14 04:17:31;;;;;;;;;;;;;;;9.79;68.78;98986.19;4994519;28;20024;-92
2023/04/14 04:19:59;;;;;;;;;;;;;;;10.00;68.62;98985.69;4977374;28;19918;-91
2023/04/14 04:22:26;;;;;;;;;;;;;;;10.19;67.64;98988.75;4994714;28;19913;-92
2023/04/14 04:24:53;;;;;;;;;;;;;;;10.24;67.54;98982.50;4993833;28;20556;-90
2023/04/14 04:27:20;;;;;;;;;;;;;;;10.39;67.61;98982.13;4994071;28;20009;-91
2023/04/14 04:29:46;;;;;;;;;;;;;;;10.48;67.46;98970.50;4994602;28;19914;-91
2023/04/14 04:32:12;;;;;;;;;;;;;;;10.68;67.04;98969.97;5009123;28;19920;-91
2023/04/14 04:34:37;;;;;;;;;;;;;;;10.79;67.52;98970.53;4994141;28;19948;-91
2023/04/14 04:37:03;;;;;;;;;;;;;;;11.15;66.43;98973.03;4994149;28;19917;-91
2023/04/14 04:39:28;;;;;;;;;;;;;;;11.23;66.36;98962.25;4994122;28;20009;-91
2023/04/14 04:42:01;;;;;;;;;;;;;;;11.51;65.69;98962.31;4976856;28;20396;-91
2023/04/14 04:44:26;;;;;;;;;;;;;;;11.42;66.72;98965.22;4975953;28;19921;-90
2023/04/14 04:46:53;;;;;;;;;;;;;;;11.63;66.44;98966.34;4994222;28;19914;-91
2023/04/14 04:49:18;;;;;;;;;;;;;;;11.65;67.66;98964.53;4993775;28;19914;-91
2023/04/14 04:51:43;;;;;;;;;;;;;;;11.69;66.98;98960.84;5008414;28;20398;-88
2023/04/14 04:54:09;;;;;;;;;;;;;;;11.54;67.16;98956.94;4994143;28;20380;-91
2023/04/14 04:56:36;;;;;;;;;;;;;;;11.55;66.42;98958.66;4993919;28;19924;-92
2023/04/14 04:59:02;;;;;;;;;;;;;;;11.75;66.15;98962.44;5008474;28;19920;-92
2023/04/14 05:01:27;;;;;;;;;;;;;;;11.67;65.38;98959.19;4991265;28;19913;-92
2023/04/14 05:03:52;;;;;;;;;;;;;;;11.80;64.56;98950.84;5008123;28;19945;-91
2023/04/14 05:06:19;;;;;;;;;;;;;;;11.99;63.58;98960.84;4993657;28;19976;-92
2023/04/14 05:08:44;;;;;;;;;;;;;;;12.15;64.62;98953.28;4992108;28;19964;-91
2023/04/14 05:11:10;;;;;;;;;;;;;;;12.28;63.46;98957.25;5008499;28;19917;-90
2023/04/14 05:13:35;;;;;;;;;;;;;;;12.31;63.65;98959.78;4992752;28;20391;-92
2023/04/14 05:16:04;;;;;;;;;;;;;;;12.30;63.34;98960.69;4993286;28;19914;-91
2023/04/14 05:18:30;;;;;;;;;;;;;;;12.28;63.09;98957.25;4991799;28;20714;-92
2023/04/14 05:21:00;;;;;;;;;;;;;;;12.28;63.42;98956.34;5008445;28;19921;-91
2023/04/14 05:23:28;;;;;;;;;;;;;;;12.09;63.47;98954.31;4975551;28;19914;-91
2023/04/14 05:25:56;;;;;;;;;;;;;;;12.10;63.95;98937.56;4992402;28;20001;-92
2023/04/14 05:28:24;;;;;;;;;;;;;;;12.28;63.87;98936.09;4992849;28;19960;-91
2023/04/14 05:30:49;;;;;;;;;;;;;;;12.15;63.60;98945.34;5008113;28;19914;-91
2023/04/14 05:33:15;;;;;;;;;;;;;;;12.13;63.94;98944.53;4991575;28;19921;-91
2023/04/14 05:35:40;;;;;;;;;;;;;;;12.13;64.36;98949.81;4993114;28;19921;-90
2023/04/14 05:38:06;;;;;;;;;;;;;;;12.28;64.33;98940.50;4992744;28;19921;-90
2023/04/14 05:40:32;;;;;;;;;;;;;;;12.39;63.58;98946.31;5007566;28;19918;-90
2023/04/14 05:42:59;;;;;;;;;;;;;;;12.42;63.56;98937.38;4975206;28;19913;-89
2023/04/14 05:45:24;;;;;;;;;;;;;;;12.28;64.22;98933.44;4993185;28;19918;-90
2023/04/14 05:47:49;;;;;;;;;;;;;;;12.47;64.01;98936.31;4992712;28;20398;-91
2023/04/14 05:50:15;;;;;;;;;;;;;;;12.59;63.84;98935.03;4993173;28;19965;-90
2023/04/14 05:52:40;;;;;;;;;;;;;;;12.60;63.48;98936.72;4992929;28;20008;-91
2023/04/14 05:55:06;;;;;;;;;;;;;;;12.77;64.08;98938.78;4974111;28;20001;-91
2023/04/14 05:57:31;;;;;;;;;;;;;;;12.54;64.19;98924.59;4974571;28;20063;-91
2023/04/14 05:59:57;;;;;;;;;;;;;;;12.45;64.82;98924.03;4992432;28;19914;-90
2023/04/14 06:02:22;;;;;;;;;;;;;;;12.67;64.62;98919.72;4992510;28;20241;-91
2023/04/14 06:04:48;;;;;;;;;;;;;;;12.66;63.71;98914.50;4990751;28;20401;-91
2023/04/14 06:07:13;;;;;;;;;;;;;;;12.63;65.09;98917.25;4991342;28;19920;-91
2023/04/14 06:09:39;;;;;;;;;;;;;;;12.80;64.89;98920.16;4992323;28;19920;-91
2023/04/14 06:12:05;;;;;;;;;;;;;;;12.64;65.40;98906.63;4992631;28;20016;-90
2023/04/14 06:14:30;;;;;;;;;;;;;;;12.59;65.52;98908.56;4990706;28;20347;-90
2023/04/14 06:16:56;;;;;;;;;;;;;;;12.73;65.89;98916.00;4992063;28;19976;-91
2023/04/14 06:19:21;;;;;;;;;;;;;;;13.07;64.68;98925.34;4992192;28;19914;-91
2023/04/14 06:21:46;;;;;;;;;;;;;;;13.05;63.73;98922.78;4991824;28;20012;-91
2023/04/14 06:24:12;;;;;;;;;;;;;;;12.88;64.52;98914.56;4992215;28;20380;-89
2023/04/14 06:26:37;;;;;;;;;;;;;;;12.64;64.96;98919.84;4991521;28;19920;-89
2023/04/14 06:29:06;;;;;;;;;;;;;;;12.54;65.91;98914.03;4991913;28;20104;-90
2023/04/14 06:31:31;;;;;;;;;;;;;;;12.56;66.28;98908.69;4990431;28;20407;-90
2023/04/14 06:33:56;;;;;;;;;;;;;;;12.56;66.48;98897.22;4992142;28;19917;-90
2023/04/14 06:36:22;;;;;;;;;;;;;;;12.67;66.99;98905.66;4992174;28;19914;-90
2023/04/14 06:38:47;;;;;;;;;;;;;;;12.69;67.50;98891.41;4992549;28;20007;-86
2023/04/14 06:41:12;;;;;;;;;;;;;;;12.75;67.47;98887.69;4992944;28;19941;-89
2023/04/14 06:43:38;;;;;;;;;;;;;;;12.98;66.99;98886.84;4991796;28;19910;-89
2023/04/14 06:46:03;;;;;;;;;;;;;;;13.06;65.60;98892.69;4991807;28;19926;-89
2023/04/14 06:48:29;;;;;;;;;;;;;;;13.35;65.99;98901.34;4991751;28;19920;-88
2023/04/14 06:50:54;;;;;;;;;;;;;;;13.61;64.83;98896.81;4991660;28;19913;-92
2023/04/14 06:53:20;;;;;;;;;;;;;;;13.69;63.89;98892.06;5006322;28;19918;-90
2023/04/14 06:55:47;;;;;;;;;;;;;;;13.67;63.70;98895.69;4992279;28;19914;-91
2023/04/14 06:58:12;;;;;;;;;;;;;;;14.03;63.00;98890.69;4990163;28;20426;-89
2023/04/14 07:00:38;;;;;;;;;;;;;;;14.16;63.35;98901.63;4991620;28;19914;-91
2023/04/14 07:03:03;;;;;;;;;;;;;;;13.89;63.92;98901.00;5006186;28;19972;-90
2023/04/14 07:05:28;;;;;;;;;;;;;;;14.25;62.99;98885.31;4991463;28;20008;-92
2023/04/14 07:07:56;;;;;;;;;;;;;;;14.35;61.57;98885.81;5006641;28;19914;-92
2023/04/14 07:10:21;;;;;;;;;;;;;;;14.44;62.18;98896.03;4990926;28;19914;-91
2023/04/14 07:12:47;;;;;;;;;;;;;;;14.90;61.37;98886.97;4991518;28;19913;-92
2023/04/14 07:15:13;;;;;;;;;;;;;;;15.03;60.07;98872.19;4990052;28;20292;-92
2023/04/14 07:17:38;;;;;;;;;;;;;;;14.92;60.21;98867.38;4991636;28;19918;-92
2023/04/14 07:20:04;;;;;;;;;;;;;;;15.08;60.92;98867.53;4990608;28;19937;-92
2023/04/14 07:22:30;;;;;;;;;;;;;;;15.18;60.17;98868.81;4991069;28;19914;-89
2023/04/14 07:24:55;;;;;;;;;;;;;;;15.37;58.49;98867.94;4990241;28;20442;-91
2023/04/14 07:27:20;;;;;;;;;;;;;;;15.33;59.05;98874.34;4990951;28;20000;-92
2023/04/14 07:29:46;;;;;;;;;;;;;;;15.24;59.78;98874.78;4989790;28;20295;-91
2023/04/14 07:32:12;;;;;;;;;;;;;;;15.06;59.78;98861.44;4990973;28;19918;-91
2023/04/14 07:34:40;;;;;;;;;;;;;;;15.42;59.13;98863.28;4991693;28;19913;-91
2023/04/14 07:37:05;;;;;;;;;;;;;;;15.21;60.00;98871.34;4989554;28;20010;-92
2023/04/14 07:39:30;;;;;;;;;;;;;;;15.16;60.18;98865.34;5006359;28;20396;-92
2023/04/14 07:41:57;;;;;;;;;;;;;;;15.24;60.62;98858.84;5006420;28;20395;-92
2023/04/14 07:44:23;;;;;;;;;;;;;;;15.05;60.33;98849.06;5005754;28;19914;-92
2023/04/14 07:46:48;;;;;;;;;;;;;;;15.33;60.98;98842.44;5005621;28;20012;-92
2023/04/14 07:49:13;;;;;;;;;;;;;;;15.56;59.63;98844.00;4989825;28;19918;-91
2023/04/14 07:51:38;;;;;;;;;;;;;;;15.47;60.99;98834.66;5002429;28;20060;-91
2023/04/14 07:54:04;;;;;;;;;;;;;;;15.43;60.39;98827.78;5004889;28;19914;-90
2023/04/14 07:56:30;;;;;;;;;;;;;;;15.55;60.35;98824.53;5004545;28;19914;-91
2023/04/14 07:58:55;;;;;;;;;;;;;;;15.64;60.41;98825.00;5003009;28;19914;-92
2023/04/14 08:01:21;;;;;;;;;;;;;;;15.41;61.06;98827.00;5002036;28;19921;-91
2023/04/14 08:03:46;;;;;;;;;;;;;;;15.46;60.91;98825.00;5006473;28;19914;-91
2023/04/14 08:06:12;;;;;;;;;;;;;;;15.21;61.75;98810.25;4991429;28;19917;-91
2023/04/14 08:08:38;;;;;;;;;;;;;;;15.35;61.82;98804.25;4973344;28;20076;-92
2023/04/14 08:11:04;;;;;;;;;;;;;;;15.42;61.12;98790.66;4973935;28;19918;-92
2023/04/14 08:13:29;;;;;;;;;;;;;;;15.33;61.71;98792.81;4991301;28;19914;-91
2023/04/14 08:15:55;;;;;;;;;;;;;;;15.42;61.16;98795.97;5006212;28;19920;-92
2023/04/14 08:18:20;;;;;;;;;;;;;;;15.51;60.92;98782.25;4973056;28;19918;-91
2023/04/14 08:20:46;;;;;;;;;;;;;;;15.57;60.91;98789.91;4973515;28;20299;-92
2023/04/14 08:23:11;;;;;;;;;;;;;;;15.65;61.62;98790.38;4989789;28;19960;-92
2023/04/14 08:25:37;;;;;;;;;;;;;;;15.83;61.59;98793.06;4990342;28;19936;-91
2023/04/14 08:28:02;;;;;;;;;;;;;;;15.87;60.61;98792.81;5005651;28;19976;-92
2023/04/14 08:30:28;;;;;;;;;;;;;;;15.92;60.15;98795.25;5005895;28;19914;-92
2023/04/14 08:32:53;;;;;;;;;;;;;;;15.71;60.62;98781.25;5005912;28;19922;-91
2023/04/14 08:35:20;;;;;;;;;;;;;;;15.98;59.79;98788.78;4973278;28;19921;-92
2023/04/14 08:37:45;;;;;;;;;;;;;;;16.11;59.70;98797.81;5009013;28;19914;-92
2023/04/14 08:40:12;;;;;;;;;;;;;;;16.27;58.20;98805.88;4994075;28;20318;-92
2023/04/14 08:42:37;;;;;;;;;;;;;;;16.15;59.27;98809.19;4994582;28;19914;-93
2023/04/14 08:45:03;;;;;;;;;;;;;;;16.00;59.57;98808.16;5009892;28;19928;-92
2023/04/14 08:47:30;;;;;;;;;;;;;;;16.31;59.41;98798.59;5008915;28;19920;-92
2023/04/14 08:50:02;;;;;;;;;;;;;;;16.33;61.77;98802.91;4994428;28;20375;-92
2023/04/14 08:52:27;;;;;;;;;;;;;;;16.50;60.06;98793.13;5009388;28;20367;-91
2023/04/14 08:54:55;;;;;;;;;;;;;;;16.44;59.92;98791.69;4992944;28;19981;-93
2023/04/14 08:57:21;;;;;;;;;;;;;;;16.44;62.05;98799.66;4994214;28;19928;-92
2023/04/14 08:59:47;;;;;;;;;;;;;;;16.46;60.35;98805.75;5009463;28;19913;-93
2023/04/14 09:02:12;;;;;;;;;;;;;;;16.57;61.70;98806.03;5008048;28;19921;-91
2023/04/14 09:04:38;;;;;;;;;;;;;;;16.85;60.40;98801.88;4994040;28;20478;-91
2023/04/14 09:07:04;;;;;;;;;;;;;;;16.84;57.49;98800.16;4994309;28;19918;-93
2023/04/14 09:09:30;;;;;;;;;;;;;;;16.52;59.05;98792.13;4993470;28;19913;-92
2023/04/14 09:11:56;;;;;;;;;;;;;;;16.26;60.81;98781.06;4994249;28;19980;-93
2023/04/14 09:14:22;;;;;;;;;;;;;;;16.75;58.84;98785.53;4993923;28;19913;-93
2023/04/14 09:16:52;;;;;;;;;;;;;;;17.18;63.33;98782.34;5008675;28;20000;-92
2023/04/14 09:19:18;;;;;;;;;;;;;;;17.41;59.07;98788.13;4994025;28;19949;-90
2023/04/14 09:21:44;;;;;;;;;;;;;;;17.81;58.95;98770.69;4993540;28;19921;-93
2023/04/14 09:24:11;;;;;;;;;;;;;;;18.21;57.85;98770.09;4994309;28;19914;-93
2023/04/14 09:26:39;;;;;;;;;;;;;;;18.35;56.19;98767.47;4976718;28;20008;-93
2023/04/14 09:29:05;;;;;;;;;;;;;;;18.58;58.82;98757.16;4993242;28;19917;-93
2023/04/14 09:31:30;;;;;;;;;;;;;;;18.76;56.64;98758.66;5008940;28;20009;-93
2023/04/14 09:33:56;;;;;;;;;;;;;;;18.82;57.50;98756.56;4976652;28;20523;-93
2023/04/14 09:36:25;;;;;;;;;;;;;;;19.23;56.66;98766.41;4992130;28;19914;-89
2023/04/14 09:38:51;;;;;;;;;;;;;;;19.60;54.47;98740.78;4993210;28;20310;-90
2023/04/14 09:41:17;;;;;;;;;;;;;;;19.46;54.56;98725.66;4992957;28;19992;-89
2023/04/14 09:43:44;;;;;;;;;;;;;;;19.49;55.13;98722.78;4993321;28;20376;-88
2023/04/14 09:46:09;;;;;;;;;;;;;;;19.79;54.05;98731.53;4993500;28;19941;-92
2023/04/14 09:48:38;;;;;;;;;;;;;;;19.94;54.12;98721.56;4992167;28;20391;-92
2023/04/14 09:51:05;;;;;;;;;;;;;;;19.61;55.16;98696.16;4993014;28;19995;-90
2023/04/14 09:53:35;;;;;;;;;;;;;;;19.80;55.75;98693.97;4993247;28;20376;-89
2023/04/14 09:56:02;;;;;;;;;;;;;;;19.91;56.92;98706.63;4992535;28;19964;-91
2023/04/14 09:58:28;;;;;;;;;;;;;;;20.26;55.82;98719.34;4992519;28;19921;-91
2023/04/14 10:00:54;;;;;;;;;;;;;;;20.09;54.35;98703.59;4992777;28;19914;-90
2023/04/14 10:03:40;;;;;;;;;;;;;;;20.15;53.66;98689.78;4992736;28;20079;-89
2023/04/14 10:06:06;;;;;;;;;;;;;;;19.38;55.92;98676.31;4992804;28;20387;-89
2023/04/14 10:08:36;;;;;;;;;;;;;;;19.42;56.16;98670.66;4993068;28;19918;-91
2023/04/14 10:11:21;;;;;;;;;;;;;;;19.82;55.36;98675.97;5007364;28;19921;-93
2023/04/14 10:13:48;;;;;;;;;;;;;;;19.85;55.81;98672.25;4992680;28;19914;-89
2023/04/14 10:16:14;;;;;;;;;;;;;;;19.99;54.41;98677.47;5006998;28;19917;-92
2023/04/14 10:18:40;;;;;;;;;;;;;;;20.04;53.14;98656.59;5007172;28;19944;-91
2023/04/14 10:21:07;;;;;;;;;;;;;;;20.47;52.73;98678.63;4991427;28;19914;-93
2023/04/14 10:23:35;;;;;;;;;;;;;;;20.42;51.07;98678.06;4992258;28;20379;-92
2023/04/14 10:26:01;;;;;;;;;;;;;;;20.42;52.44;98665.56;5006657;28;19983;-91
2023/04/14 10:28:27;;;;;;;;;;;;;;;20.84;51.97;98660.75;4992236;28;20351;-88
2023/04/14 10:30:53;;;;;;;;;;;;;;;20.37;53.44;98681.09;4992002;28;19914;-90
2023/04/14 10:33:19;;;;;;;;;;;;;;;20.37;52.32;98675.72;4992605;28;19920;-90
2023/04/14 10:35:46;;;;;;;;;;;;;;;20.30;51.02;98679.81;4991995;28;19913;-88
2023/04/14 10:38:13;;;;;;;;;;;;;;;20.06;55.12;98674.38;4990373;28;20409;-89
2023/04/14 10:40:45;;;;;;;;;;;;;;;20.17;52.67;98686.06;4992244;28;19914;-90
2023/04/14 10:43:12;;;;;;;;;;;;;;;20.40;52.47;98675.50;4992228;28;19918;-92
2023/04/14 10:45:57;;;;;;;;;;;;;;;20.66;53.68;98664.78;4991757;28;20000;-94
2023/04/14 10:48:27;;;;;;;;;;;;;;;20.60;52.35;98695.50;4974160;28;19913;-91
2023/04/14 10:51:11;;;;;;;;;;;;;;;20.27;54.18;98646.09;5007078;28;20008;-91
2023/04/14 10:53:49;;;;;;;;;;;;;;;20.52;54.54;98660.38;4990452;28;19945;-91
2023/04/14 10:56:14;;;;;;;;;;;;;;;20.92;55.09;98631.53;4991751;28;19914;-92
2023/04/14 10:58:40;;;;;;;;;;;;;;;20.84;51.81;98638.47;4990464;28;19967;-91
2023/04/14 11:01:24;;;;;;;;;;;;;;;21.52;51.02;98674.47;4991252;28;19914;-92
2023/04/14 11:03:52;;;;;;;;;;;;;;;21.60;49.60;98655.09;4991710;28;19913;-93
2023/04/14 11:06:36;;;;;;;;;;;;;;;21.55;50.03;98652.78;4990787;28;19918;-90
2023/04/14 11:09:08;;;;;;;;;;;;;;;21.43;50.13;98616.13;4991774;28;19920;-94
2023/04/14 11:11:33;;;;;;;;;;;;;;;21.83;50.21;98618.44;4991325;28;19920;-93
2023/04/14 11:14:11;;;;;;;;;;;;;;;21.92;47.77;98624.88;4974158;28;20303;-91
2023/04/14 11:16:38;;;;;;;;;;;;;;;21.95;47.93;98625.50;4990862;28;19917;-94
2023/04/14 11:19:12;;;;;;;;;;;;;;;22.10;47.06;98604.63;4974042;28;20021;-91
2023/04/14 11:21:46;;;;;;;;;;;;;;;22.37;46.86;98610.63;4973585;28;19965;-92
2023/04/14 11:24:12;;;;;;;;;;;;;;;22.53;46.09;98600.34;4991077;28;20004;-90
2023/04/14 11:26:39;;;;;;;;;;;;;;;22.45;46.73;98582.16;4990995;28;20370;-90
2023/04/14 11:29:08;;;;;;;;;;;;;;;22.63;46.76;98570.88;4991137;28;20339;-91
2023/04/14 11:31:33;;;;;;;;;;;;;;;22.78;45.79;98574.13;4990242;28;19917;-92
2023/04/14 11:34:02;;;;;;;;;;;;;;;22.99;45.03;98560.72;4990713;28;19949;-94
2023/04/14 11:36:31;;;;;;;;;;;;;;;23.00;44.55;98568.66;5006902;28;20394;-91
2023/04/14 11:39:00;;;;;;;;;;;;;;;23.19;43.79;98573.34;4991321;28;19914;-93
2023/04/14 11:41:25;;;;;;;;;;;;;;;23.49;42.88;98581.63;5006520;28;19960;-92
2023/04/14 11:43:51;;;;;;;;;;;;;;;23.58;42.53;98570.91;4991035;28;19952;-88
2023/04/14 11:46:20;;;;;;;;;;;;;;;23.74;44.59;98569.56;4991719;28;20448;-89
2023/04/14 11:48:46;;;;;;;;;;;;;;;23.74;43.57;98566.88;4991030;28;19977;-89
2023/04/14 11:51:12;;;;;;;;;;;;;;;23.71;43.51;98576.09;5005887;28;19918;-94
2023/04/14 11:54:00;;;;;;;;;;;;;;;23.80;42.60;98563.66;5006708;28;20323;-94
2023/04/14 11:56:29;;;;;;;;;;;;;;;23.84;41.59;98570.50;4990790;28;19920;-89
2023/04/14 11:59:01;;;;;;;;;;;;;;;23.77;40.66;98570.19;5006273;28;20283;-92
2023/04/14 12:01:30;;;;;;;;;;;;;;;23.97;41.30;98567.59;5005274;28;19917;-93
2023/04/14 12:03:56;;;;;;;;;;;;;;;24.27;41.65;98574.78;5006282;28;19980;-93
2023/04/14 12:06:22;;;;;;;;;;;;;;;24.49;39.92;98568.28;5006103;28;19956;-92
2023/04/14 12:09:02;;;;;;;;;;;;;;;24.63;40.15;98567.06;5005259;28;20045;-92
2023/04/14 12:11:35;;;;;;;;;;;;;;;24.96;38.42;98559.59;4992153;28;19914;-94
2023/04/14 12:14:05;;;;;;;;;;;;;;;25.15;37.95;98563.28;4993446;28;20357;-93
2023/04/14 12:16:30;;;;;;;;;;;;;;;25.43;39.05;98558.00;5009508;28;20433;-94
2023/04/14 12:18:56;;;;;;;;;;;;;;;25.43;36.88;98550.75;4993998;28;19913;-90
2023/04/14 12:21:21;;;;;;;;;;;;;;;25.63;36.73;98551.56;4994410;28;19914;-90
2023/04/14 12:23:47;;;;;;;;;;;;;;;25.84;35.09;98543.25;4993217;28;19913;-90
2023/04/14 12:26:13;;;;;;;;;;;;;;;25.73;33.88;98532.59;5009545;28;19921;-92
2023/04/14 12:28:40;;;;;;;;;;;;;;;26.00;32.05;98529.13;4994509;28;19956;-92
2023/04/14 12:31:06;;;;;;;;;;;;;;;26.41;32.72;98534.13;4993919;28;19972;-94
2023/04/14 12:33:39;;;;;;;;;;;;;;;26.77;31.91;98543.16;5009497;28;19920;-93
2023/04/14 12:36:08;;;;;;;;;;;;;;;26.85;30.97;98528.88;4994235;28;20428;-92
2023/04/14 12:38:35;;;;;;;;;;;;;;;26.49;29.15;98542.31;5009905;28;19924;-93
2023/04/14 12:41:00;;;;;;;;;;;;;;;26.19;30.12;98519.22;4985913;28;19921;-88
2023/04/14 12:43:27;;;;;;;;;;;;;;;26.45;28.20;98513.91;4988305;28;19913;-91
2023/04/14 12:45:54;;;;;;;;;;;;;;;27.00;26.26;98509.38;4994362;28;19966;-90
2023/04/14 12:48:20;;;;;;;;;;;;;;;27.22;26.08;98514.28;4993882;28;19921;-89